Briefing drone pour Decize

Rechercher une autre localisation

Conditions de vol :


Nous sommes le : Mardi 13 avril 2021
Il est 10:00 UTC (12:00 LT)

Lever de soleil : 04:35 UTC (06:35 LT)
Coucher de soleil : 18:58 UTC (20:58 LT)

Météo

L'essentiel des conditions de vol

VIGILANCE MÉTÉO FRANCE - Nièvre (58)
Pas de vigilances particulieres
CARTES DES FRONTS
METAR de LFQG
LFQG 130930Z AUTO 02008KT 340V050 9999 SCT026 SCT048 BKN058 09/04 Q1030

Date d'émission: 13/04/2021
Heure d'émission: 09:30 UTC
Vent: 020° (variable du 340° au 050°) pour 8 KT (15 km/h)
Visibilité horizontale: > 10 km
Plafond :
- Nuages épars à 2600ft (792m)
- Nuages épars à 4800ft (1463m)
- Nuages morcelés à 5800ft (1768m)
Température: 9 °C
Point de rosée: 4 °C
Humidité: 71%
Pression (QNH): 1030 hPa
Prévision 24h pour Nevers (18 km)
Vent : 31° pour 2 KT (7 km/h)
Temperature Maxi: -1 °C
Temperature Min: -1 °C
Humidité : 69%
Condition : Ciel dégagé



Warning: count(): Parameter must be an array or an object that implements Countable in /homepages/6/d509196549/htdocs/droneoxygene/briefing.php on line 743
WEBCAM POUR DECIZE

Réglementation

Voler en sécurité

CARTES AERONAUTIQUE 1/500.000
CARTES VAC (LFQG)
SUP AIP




Chargement des AIP...
NOTAM (DECIZE + Terrain à proximité / FIR )




Chargement des NOTAMS...
CONTACT PREFECTURE 58


Avertissement : Les données mises à disposition sont indicatives. Oxygène Drone ne pourra être tenu responsable de dégâts causés aux biens et aux personnes.